NCAR-RAP Real-Time Weather Data

Output produced by METARs form (23 June 2018  19:29 UTC)
found at http://weather.rap.ucar.edu/surface/
 
RJFM 231200Z 01003KT 340V050 7000 -SHRA FEW004 SCT015 BKN020 23/23 Q1004
RJFM 231135Z VRB02KT 5000 -SHRA BR FEW004 SCT020 BKN030 23/22 Q1004 RMK 1ST004 3CU020 5CU030 A2965
RJFM 231126Z 27004KT 3500 SHRA BR FEW004 SCT010 BKN020 23/22 Q1004 RMK 1ST004 3ST010 5CU020 A2965
RJFM 231110Z 17006KT 3000 +SHRA BR FEW004 SCT025 BKN030 23/22 Q1003 RMK 1ST004 3CU025 5CU030 A2964
RJFM 231100Z 15006KT 120V180 4500 SHRA BR FEW004 SCT030 BKN035 23/23 Q1003
RJFM 231014Z 16008KT 5000 -SHRA BR FEW004 SCT020 BKN030 23/23 Q1003 RMK 1ST004 3CU020 5CU030 A2963
RJFM 231008Z 16010KT 3500 +SHRA BR FEW004 SCT030 BKN035 23/22 Q1003 RMK 1ST004 3CU030 5CU035 A2964
RJFM 231000Z 16010KT 3000 SHRA BR FEW004 SCT030 BKN035 23/22 Q1003
RJFM 230900Z 17011KT 7000 -SHRA FEW004 SCT030 BKN035 23/23 Q1003
RJFM 230800Z VRB02KT 7000 -SHRA FEW004 SCT030 BKN035 23/23 Q1004
RJFM 230743Z 14004KT 100V180 5000 -SHRA BR FEW004 SCT030 BKN035 23/23 Q1003 RMK 1ST004 3CU030 5CU035 A2964
RJFM 230710Z 14003KT 110V180 3500 SHRA BR FEW004 SCT020 BKN030 23/23 Q1004 RMK 1ST004 3CU020 5CU030 A2965
RJFM 230700Z 13005KT 7000 -SHRA FEW004 SCT025 BKN030 23/23 Q1003
RJFM 230618Z 15007KT 5000 SHRA BR FEW004 SCT025 BKN030 23/22 Q1004 RMK 1ST004 3CU025 5CU030 A2965
RJFM 230600Z 15008KT 5000 -SHRA BR FEW004 SCT030 BKN035 22/22 Q1004
RJFM 230538Z 14006KT 4500 SHRA BR FEW004 SCT010 BKN030 22/22 Q1004 RMK 1ST004 3ST010 5CU030 A2966
RJFM 230500Z 12006KT 9000 -SHRA FEW004 SCT010 BKN035 23/22 Q1004
RJFM 230400Z 09003KT 030V160 9999 -SHRA SCT005 SCT015 BKN040 23/22 Q1004
RJFM 230300Z 01003KT 320V100 9000 -SHRA FEW003 SCT005 BKN007 21/21 Q1005
RJFM 230200Z 30004KT 270V360 8000 -SHRA FEW003 SCT005 BKN007 21/21 Q1005
RJFM 230135Z 01009KT 6000 -SHRA FEW003 SCT005 BKN007 21/21 Q1005 RMK 2ST003 4ST005 6ST007 A2968
RJFM 230100Z 02008KT 360V090 3500 SHRA BR FEW002 SCT004 BKN007 FEW020CB 21/21 Q1005
RJFM 230036Z VRB04KT 1500 R27/0900VP1800D +SHRA BR FEW002 SCT004 BKN007 FEW020CB 20/20 Q1006 RMK 1ST002 4ST004 6ST007 1CB020 A2972 FBL TS 5KM N MOV NE P/RR RI++
RJFM 230026Z 01008KT 350V090 1500 R27/P1800N +SHRA BR FEW002 SCT004 BKN007 FEW020CB 21/20 Q1006 RMK 1ST002 4ST004 6ST007 1CB020 A2971 CB OHD MOV NE P/RR RI++
RJFM 230005Z 04010KT 2500 R27/1200VP1800D +SHRA BR FEW002 SCT005 BKN007 21/21 Q1004 RMK 1ST002 4ST005 6ST007 A2966
RJFM 230000Z 03010KT 3000 SHRA BR FEW002 SCT005 BKN007 21/21 Q1004
RJFM 222334Z 03008KT 350V060 3500 SHRA BR FEW003 SCT005 BKN007 21/21 Q1004 RMK 1ST003 3ST005 6ST007 A2967
RJFM 222300Z 05008KT 9000 -SHRA FEW003 SCT005 BKN007 21/21 Q1004
RJFM 222218Z 09003KT 8000 -SHRA FEW003 BKN006 BKN015 21/21 Q1005 RMK 1ST003 5ST006 7CU015 A2968
RJFM 222200Z 00000KT 9999 -SHRA FEW003 BKN007 BKN025 21/21 Q1005
RJFM 222110Z 26003KT 9000 -SHRA FEW003 SCT008 BKN025 20/20 Q1004 RMK 1ST003 3ST008 6CU025 A2967
RJFM 221200Z 01005KT 9999 FEW010 SCT015 BKN040 24/22 Q1009
RJFM 221100Z 02003KT 350V060 9999 FEW015 SCT045 BKN050 24/23 Q1008
RJFM 221000Z 13005KT 9999 -RA FEW010 BKN050 BKN060 25/22 Q1008
RJFM 220900Z 14009KT 9999 FEW010 SCT050 BKN/// 25/22 Q1008
RJFM 220800Z 12006KT 9999 FEW030 SCT160 BKN/// 25/22 Q1008
RJFM 220700Z 13004KT 090V150 9999 FEW020 SCT170 BKN/// 26/22 Q1008
RJFM 220600Z 10005KT 9999 FEW020 BKN/// 26/22 Q1008
RJFM 220500Z 11005KT 9999 FEW020 SCT030 BKN/// 26/22 Q1008
RJFM 220400Z 05006KT 9999 SCT020 BKN/// 26/23 Q1009
RJFM 220300Z 05008KT 9999 FEW015 SCT025 BKN/// 26/23 Q1009
RJFM 220200Z 04008KT 9999 SCT022 SCT040 BKN/// 26/23 Q1009
RJFM 220100Z 04007KT 9999 FEW010 BKN022 25/22 Q1009
RJFM 220000Z 03004KT 9999 FEW010 SCT028 BKN/// 24/21 Q1009
RJFM 212300Z VRB02KT 9000 FEW010 SCT/// 23/21 Q1009
RJFM 212200Z 28004KT 9000 FEW010 SCT210 22/21 Q1009
RJFM 212110Z 27004KT 6000 FEW005 SCT120 21/20 Q1009 RMK 1ST005 3AC120 A2980
RJFM 211200Z 27003KT 240V310 9999 FEW030 23/22 Q1007
RJFM 211100Z 19004KT 9999 FEW030 BKN/// 23/22 Q1007
RJFM 211000Z 16008KT 9999 FEW030 BKN/// 23/22 Q1007
RJFM 210900Z 16010KT 9999 FEW030 BKN/// 24/21 Q1007
RJFM 210800Z 15013KT 9999 FEW025 BKN/// 24/21 Q1007